1AR2 weather

Taylor Airstrip
Des Arc, Arkansas, United States

Public forecast

Using degrees Fahrenheit for public forecast. Weather courtesy of forecast.io.

METAR (pilot weather report)

Closest report is Searcy Municipal Airport, 16.3 nm (30.2 km) NW. Retrieved 2019/07/22 05:56 UTC (46 minutes ago):

KSRC 220556Z AUTO 19005KT 10SM CLR 26/26 A2993 RMK AO2 SLP134 T02560256 10317 20256 55000

TAF (pilot weather forecast)

Closest forecast is Little Rock Air Force Base, 29.8 nm (55.2 km) W. Retrieved 2019/07/22 07:03 UTC (0 seconds ago):

TAF TAF KLRF 220700Z 2207/2313 VRB06KT 9999 FEW045 QNH2992INS BECMG 2220/2221 02010G15KT 9000 -SHRA SCT035 QNH2995INS TEMPO 2222/2302 VRB15G20KT 8000 -TSRA BKN020CB BKN080 BECMG 2302/2303 03012G18KT 8000 -SHRA BKN015 QNH3003INS BECMG 2305/2306 04006KT 9999 NSW SCT020 QNH3001INS BECMG 2309/2310 33012KT 9999 FEW045 QNH3004INS TX31/2220Z TN21/2312Z